Baykal'sk, Russia
Current Conditions -  °F | °C
As of 9:00 PM on Friday 28 Nov 2014 (Local Time) from UIII Reporting Station
Overcast Overcast  
Wind Chill:   Ceiling: 3700
Heat Index: 12°   Visibility: 6mi
Dew Point:   Wind: 7mph
Humidity: 79%   Direction: 330°NNW
Pressure: 30.03"   Gusts: NA
Location:  51.55°N, 104.4°E
Report Text: UIII 281300Z 33003MPS 9999 BKN037 OVC100 M11/M14 Q1017 NOSIGRMK QFE718/0957 30CLRD60
Loading
Personal Weather Stations






























Interactive Weather Map New forecast layout! Learn more

10-Day Weather Forecast

Advertisements
Track Severe Weather on mobile